Star City, WV (26504)

5:31 PM EST on February 05, 2016 (GMT -0500)
WVU Evansdale NRCCE | | Change Station
CLOSE
Current Station
Personal Weather Station
Location: Morgantown, WV
Elevation: 1115 ft
Nearby Weather Stations

Elev 1115 ft 39.65 °N, 79.97 °W | Updated 24 seconds ago

Clear
Clear
37.4 °F
Feels Like 37 °F
N
0.0
Wind Variable Wind from West
Gusts 3.8 mph

Today
High -- | Low -- °F
--% Chance of Precip.
Yesterday
High -- | Low -- °F
Precip. -- in
Pressure 30.39 in
Visibility 10.0 miles
Clouds Clear
Windchill 37 °F
Dew Point 18 °F
Humidity 46%
Rainfall 0.00 in
Snow Depth Not available.
7:24 AM 5:44 PM
Waning Crescent, 9% visible
METAR KMGW 052153Z 33004KT 10SM CLR 02/M11 A3035 RMK AO2 SLP290 T00221106
Pressure 30.39 in
Visibility 10.0 miles
Clouds Clear
Windchill 37 °F
Dew Point 18 °F
Humidity 46%
Rainfall 0.00 in
Snow Depth Not available.
7:24 AM 5:44 PM
Waning Crescent, 9% visible
METAR KMGW 052153Z 33004KT 10SM CLR 02/M11 A3035 RMK AO2 SLP290 T00221106

10-Day Weather Forecast

Almanac

Astronomy

Feb. 05, 2016 Rise Set
Actual Time
Civil Twilight
Nautical Twilight
Astronomical Twilight
Moon
Length of Visible Light
Length of Day
Tomorrow will be .
, % of the Moon is Illuminated

Today's Extremes

State Highs State Lows

Community

WunderPhotos

Upload Photos

1,890,879 photos uploaded!

WunderBlog® & News

Nearby

Air Quality

  Air Quality AQ Index Pollutant
Not available.

Snow Depth

Station Depth Elevation

Earthquake Activity

City Distance Mag. Time & Date
Minimum magnitude displayed is 2.5.

Coastal Water Temperatures

Place Temperature

Stations

Nearby Weather Stations

Station Location Temp. Windchill Dew Point Humidity Wind Precip. Elev Updated Type
                   

Watches & Warnings

There are currently no watches in effect.